createdAt,value
2023-03-25T00:00:40.907Z,68.57
2023-03-25T00:03:09.478Z,68.41
2023-03-25T00:05:40.257Z,68.91
2023-03-25T00:08:07.402Z,68.92
2023-03-25T00:10:39.036Z,68.85
2023-03-25T00:13:08.528Z,68.90
2023-03-25T00:15:35.710Z,69.09
2023-03-25T00:18:03.923Z,69.09
2023-03-25T00:20:34.078Z,69.25
2023-03-25T00:23:03.384Z,69.53
2023-03-25T00:25:30.526Z,69.20
2023-03-25T00:28:00.295Z,69.70
2023-03-25T00:30:27.528Z,69.69
2023-03-25T00:32:57.966Z,69.69
2023-03-25T00:35:30.544Z,69.95
2023-03-25T00:38:02.347Z,69.89
2023-03-25T00:40:39.676Z,70.00
2023-03-25T00:43:12.656Z,70.29
2023-03-25T00:46:01.488Z,70.31
2023-03-25T00:48:42.410Z,70.36
2023-03-25T00:51:19.700Z,70.66
2023-03-25T00:53:56.439Z,70.68
2023-03-25T00:56:45.802Z,71.00
2023-03-25T00:59:28.884Z,71.29
2023-03-25T01:02:10.940Z,71.23
2023-03-25T01:04:44.230Z,71.25
2023-03-25T01:07:20.578Z,71.70
2023-03-25T01:09:48.997Z,71.48
2023-03-25T01:12:24.777Z,72.02
2023-03-25T01:14:56.942Z,71.98
2023-03-25T01:17:24.299Z,71.93
2023-03-25T01:19:51.576Z,72.16
2023-03-25T01:22:21.151Z,72.39
2023-03-25T01:24:50.749Z,72.09
2023-03-25T01:27:17.999Z,72.41
2023-03-25T01:29:48.148Z,72.39
2023-03-25T01:32:23.281Z,72.50
2023-03-25T01:35:12.542Z,72.85
2023-03-25T01:37:44.819Z,72.70
2023-03-25T01:40:18.216Z,72.85
2023-03-25T01:42:45.298Z,72.88
2023-03-25T01:45:24.104Z,72.79
2023-03-25T01:47:58.785Z,73.02
2023-03-25T01:50:29.462Z,72.88
2023-03-25T01:52:58.069Z,73.10
2023-03-25T01:55:27.694Z,73.19
2023-03-25T01:57:57.253Z,73.13
2023-03-25T02:00:26.203Z,72.91
2023-03-25T02:02:55.079Z,73.31
2023-03-25T02:05:26.086Z,73.01
2023-03-25T02:07:54.981Z,73.41
2023-03-25T02:10:24.730Z,73.18
2023-03-25T02:12:51.696Z,73.12
2023-03-25T02:15:19.316Z,73.26
2023-03-25T02:18:03.634Z,73.26
2023-03-25T02:20:48.824Z,72.95
2023-03-25T02:23:28.676Z,73.21
2023-03-25T02:26:27.756Z,73.12
2023-03-25T02:29:02.293Z,73.30
2023-03-25T02:32:01.679Z,73.19
2023-03-25T02:34:54.193Z,73.23
2023-03-25T02:37:52.580Z,72.89
2023-03-25T02:40:52.414Z,73.25
2023-03-25T02:43:26.010Z,73.02
2023-03-25T02:45:56.516Z,73.12
2023-03-25T02:48:35.176Z,73.40
2023-03-25T02:51:06.531Z,73.13
2023-03-25T02:53:34.693Z,73.50
2023-03-25T02:56:05.081Z,73.50
2023-03-25T02:58:33.362Z,73.39
2023-03-25T03:01:00.408Z,73.52
2023-03-25T03:03:30.998Z,73.26
2023-03-25T03:06:07.850Z,73.23
2023-03-25T03:08:50.395Z,73.53
2023-03-25T03:11:22.647Z,73.41
2023-03-25T03:14:30.108Z,73.16
2023-03-25T03:17:10.244Z,73.35
2023-03-25T03:19:46.648Z,73.16
2023-03-25T03:22:26.010Z,73.27
2023-03-25T03:25:18.259Z,73.21
2023-03-25T03:27:55.858Z,73.64
2023-03-25T03:30:34.225Z,73.32
2023-03-25T03:33:15.685Z,73.41
2023-03-25T03:35:51.925Z,73.17
2023-03-25T03:38:21.646Z,73.59
2023-03-25T03:40:56.263Z,73.51
2023-03-25T03:43:39.309Z,73.86
2023-03-25T03:46:35.498Z,74.07
2023-03-25T03:49:09.627Z,74.39
2023-03-25T03:51:40.771Z,74.78
2023-03-25T03:54:28.524Z,75.06
2023-03-25T03:57:31.333Z,75.51
2023-03-25T04:00:13.919Z,75.89
2023-03-25T04:02:55.817Z,76.18
2023-03-25T04:05:33.931Z,76.65
2023-03-25T04:08:12.245Z,76.92
2023-03-25T04:10:47.067Z,77.22
2023-03-25T04:13:23.876Z,77.65
2023-03-25T04:15:57.507Z,77.94
2023-03-25T04:18:28.966Z,78.24
2023-03-25T04:21:15.959Z,78.31
2023-03-25T04:23:54.320Z,78.78
2023-03-25T04:26:35.236Z,79.01
2023-03-25T04:29:27.813Z,79.22
2023-03-25T04:32:08.651Z,79.44
2023-03-25T04:34:54.202Z,79.69
2023-03-25T04:37:33.975Z,79.62
2023-03-25T04:40:18.095Z,79.85
2023-03-25T04:43:22.292Z,80.12
2023-03-25T04:46:25.938Z,80.06
2023-03-25T04:49:08.442Z,79.96
2023-03-25T04:58:36.673Z,80.34
2023-03-25T05:05:00.869Z,80.54
2023-03-25T05:11:28.949Z,80.20
2023-03-25T05:15:16.324Z,80.38
2023-03-25T05:18:17.286Z,80.22
2023-03-25T05:20:47.110Z,80.45
2023-03-25T05:23:18.174Z,80.31
2023-03-25T05:25:46.464Z,80.15
2023-03-25T05:32:38.112Z,79.99
2023-03-25T05:41:33.356Z,79.34
2023-03-25T05:44:01.059Z,79.39
2023-03-25T05:46:29.874Z,79.27
2023-03-25T05:49:01.152Z,79.40
2023-03-25T05:51:29.492Z,79.14
2023-03-25T05:53:56.412Z,79.61
2023-03-25T05:56:24.479Z,79.12
2023-03-25T05:59:13.390Z,78.84
2023-03-25T06:01:47.794Z,78.90
2023-03-25T06:04:17.021Z,78.67
2023-03-25T06:06:46.516Z,78.79
2023-03-25T06:09:27.575Z,78.47
2023-03-25T06:11:55.737Z,78.49
2023-03-25T06:14:30.280Z,78.58
2023-03-25T06:16:57.504Z,78.30
2023-03-25T06:19:37.357Z,78.12
2023-03-25T06:22:04.560Z,78.13
2023-03-25T06:24:31.344Z,78.19
2023-03-25T06:26:58.115Z,78.11
2023-03-25T06:32:19.004Z,78.24
2023-03-25T07:15:33.427Z,75.25
2023-03-25T07:18:00.544Z,75.10
2023-03-25T07:20:27.545Z,74.85
2023-03-25T07:22:55.541Z,74.56
2023-03-25T07:25:22.714Z,74.43
2023-03-25T07:27:49.706Z,74.33
2023-03-25T07:30:37.183Z,74.04
2023-03-25T07:33:11.913Z,73.78
2023-03-25T07:35:38.917Z,73.58
2023-03-25T07:38:10.273Z,73.37
2023-03-25T07:40:39.757Z,73.15
2023-03-25T07:43:16.633Z,72.82
2023-03-25T07:54:05.194Z,71.82
2023-03-25T07:56:33.242Z,71.43
2023-03-25T08:02:35.345Z,70.57
2023-03-25T08:08:25.479Z,69.89
2023-03-25T08:10:53.969Z,69.86
2023-03-25T08:13:30.333Z,69.37
2023-03-25T08:16:00.701Z,69.23
2023-03-25T08:18:39.403Z,69.19
2023-03-25T08:21:30.613Z,68.70
2023-03-25T08:24:07.860Z,68.63
2023-03-25T08:26:40.649Z,68.80
2023-03-25T08:29:20.793Z,68.68
2023-03-25T08:32:01.428Z,68.20
2023-03-25T08:38:06.801Z,67.99
2023-03-25T08:41:27.033Z,67.75
2023-03-25T08:43:53.934Z,67.83
2023-03-25T08:46:55.666Z,66.93
2023-03-25T08:50:06.442Z,65.81
2023-03-25T08:52:46.594Z,65.37
2023-03-25T08:56:23.642Z,64.52
2023-03-25T08:59:06.417Z,63.99
2023-03-25T09:01:40.432Z,63.43
2023-03-25T09:04:07.672Z,63.34
2023-03-25T09:06:47.702Z,63.23
2023-03-25T09:09:26.535Z,63.22
2023-03-25T09:11:53.542Z,63.62
2023-03-25T09:14:20.565Z,63.70
2023-03-25T09:16:47.657Z,63.97
2023-03-25T09:19:34.871Z,64.24
2023-03-25T09:22:23.025Z,64.55
2023-03-25T09:25:00.323Z,64.65
2023-03-25T09:27:53.783Z,65.65
2023-03-25T09:31:49.635Z,67.43
2023-03-25T09:40:34.215Z,70.14
2023-03-25T09:44:21.361Z,71.02
2023-03-25T10:05:23.169Z,70.47
2023-03-25T10:30:54.192Z,66.70
2023-03-25T10:38:15.136Z,65.43
2023-03-25T10:40:52.287Z,64.65
2023-03-25T10:47:46.110Z,63.59
2023-03-25T10:57:33.836Z,62.96
2023-03-25T11:00:18.676Z,62.10
2023-03-25T11:02:47.346Z,61.25
2023-03-25T11:05:19.933Z,60.65
2023-03-25T11:08:24.176Z,60.51
2023-03-25T11:14:40.991Z,59.96
2023-03-25T11:20:35.371Z,59.79
2023-03-25T11:23:29.994Z,59.78
2023-03-25T11:26:57.464Z,59.56
2023-03-25T11:29:43.558Z,59.61
2023-03-25T11:32:41.326Z,59.55
2023-03-25T11:35:45.905Z,59.55
2023-03-25T11:39:05.170Z,59.56
2023-03-25T11:49:26.428Z,61.52
2023-03-25T11:52:01.892Z,61.46
2023-03-25T11:54:29.380Z,61.85
2023-03-25T11:56:57.872Z,62.19
2023-03-25T11:59:36.772Z,62.30
2023-03-25T12:02:15.816Z,61.94
2023-03-25T12:04:56.345Z,62.24
2023-03-25T12:07:26.628Z,62.54
2023-03-25T12:09:59.563Z,62.27
2023-03-25T12:12:29.886Z,62.25
2023-03-25T12:15:03.612Z,62.29
2023-03-25T12:30:12.075Z,62.79
2023-03-25T12:33:06.864Z,62.58
2023-03-25T12:35:44.432Z,62.23
2023-03-25T12:38:29.520Z,62.31
2023-03-25T12:41:25.947Z,62.18
2023-03-25T12:44:07.440Z,62.21
2023-03-25T12:46:56.155Z,62.20
2023-03-25T12:49:48.641Z,62.15
2023-03-25T12:52:20.230Z,62.12
2023-03-25T12:55:05.780Z,61.56
2023-03-25T12:57:58.837Z,60.98
2023-03-25T13:00:28.958Z,60.40
2023-03-25T13:03:09.997Z,60.53
2023-03-25T13:05:52.681Z,60.31
2023-03-25T13:08:32.685Z,60.37
2023-03-25T13:11:22.933Z,60.44
2023-03-25T13:13:51.955Z,60.25
2023-03-25T13:16:25.237Z,59.70
2023-03-25T13:19:02.503Z,59.98
2023-03-25T13:21:33.424Z,59.69
2023-03-25T13:24:22.782Z,60.17
2023-03-25T13:26:53.283Z,61.77
2023-03-25T13:29:28.805Z,62.83
2023-03-25T13:31:58.877Z,63.27
2023-03-25T13:34:35.543Z,63.48
2023-03-25T13:37:33.690Z,63.11
2023-03-25T13:40:11.110Z,62.59
2023-03-25T13:42:45.077Z,62.28
2023-03-25T13:45:20.118Z,62.51
2023-03-25T13:47:53.171Z,62.15
2023-03-25T13:50:29.124Z,61.87
2023-03-25T13:53:09.639Z,61.35
2023-03-25T13:55:45.128Z,61.36
2023-03-25T13:58:30.937Z,61.40
2023-03-25T14:01:13.088Z,61.72
2023-03-25T14:03:40.070Z,61.89
2023-03-25T14:07:04.006Z,61.91
2023-03-25T14:09:49.596Z,62.08
2023-03-25T14:12:27.109Z,62.66
2023-03-25T14:15:47.249Z,62.25
2023-03-25T14:18:20.190Z,62.85
2023-03-25T14:20:51.481Z,62.53
2023-03-25T14:23:28.992Z,62.83
2023-03-25T14:26:00.189Z,62.85
2023-03-25T14:28:41.449Z,62.38
2023-03-25T14:31:08.432Z,62.82
2023-03-25T14:34:00.941Z,62.09
2023-03-25T14:36:31.505Z,61.84
2023-03-25T14:38:59.759Z,61.21
2023-03-25T14:42:02.086Z,60.28
2023-03-25T14:44:33.451Z,60.25
2023-03-25T14:47:23.069Z,60.30
2023-03-25T14:50:05.085Z,59.97
2023-03-25T14:52:33.160Z,60.28
2023-03-25T14:55:06.548Z,60.00
2023-03-25T14:57:40.946Z,60.62
2023-03-25T15:00:16.266Z,60.91
2023-03-25T15:02:44.598Z,60.96
2023-03-25T15:05:12.187Z,61.62
2023-03-25T15:07:54.477Z,61.92
2023-03-25T15:10:28.137Z,61.96
2023-03-25T15:13:07.691Z,62.11
2023-03-25T15:15:34.588Z,62.30
2023-03-25T15:18:01.458Z,61.81
2023-03-25T15:20:29.788Z,61.03
2023-03-25T15:23:18.886Z,61.01
2023-03-25T15:25:47.178Z,60.06
2023-03-25T15:28:19.886Z,59.00
2023-03-25T15:31:20.384Z,58.61
2023-03-25T15:34:00.724Z,57.93
2023-03-25T15:36:53.986Z,57.42
2023-03-25T15:39:54.069Z,56.42
2023-03-25T15:42:38.051Z,55.68
2023-03-25T15:45:19.703Z,54.92
2023-03-25T15:48:05.412Z,54.65
2023-03-25T15:50:44.316Z,54.34
2023-03-25T15:53:35.804Z,54.36
2023-03-25T15:56:14.150Z,53.73
2023-03-25T15:59:05.893Z,53.67
2023-03-25T16:01:39.467Z,54.28
2023-03-25T16:04:20.777Z,54.71
2023-03-25T16:06:52.490Z,55.51
2023-03-25T16:09:28.987Z,56.27
2023-03-25T16:12:01.570Z,56.52
2023-03-25T16:14:31.145Z,57.47
2023-03-25T16:17:00.475Z,58.14
2023-03-25T16:19:41.846Z,58.20
2023-03-25T16:22:20.078Z,58.61
2023-03-25T16:24:48.757Z,59.01
2023-03-25T16:27:29.644Z,59.23
2023-03-25T16:29:57.056Z,60.01
2023-03-25T16:32:26.512Z,60.26
2023-03-25T16:34:59.813Z,62.23
2023-03-25T16:37:27.550Z,64.10
2023-03-25T16:39:56.848Z,65.03
2023-03-25T16:42:31.448Z,66.02
2023-03-25T16:44:58.236Z,66.77
2023-03-25T16:47:25.466Z,67.76
2023-03-25T16:49:54.805Z,68.59
2023-03-25T16:52:28.835Z,69.26
2023-03-25T16:54:55.725Z,69.62
2023-03-25T16:57:27.901Z,70.15
2023-03-25T16:59:56.262Z,70.73
2023-03-25T17:02:27.797Z,70.74
2023-03-25T17:04:58.118Z,71.16
2023-03-25T17:07:26.957Z,71.26
2023-03-25T17:09:59.128Z,71.20
2023-03-25T17:12:27.622Z,71.61
2023-03-25T17:15:04.585Z,71.92
2023-03-25T17:17:51.435Z,71.64
2023-03-25T17:20:24.538Z,71.95
2023-03-25T17:23:38.246Z,71.96
2023-03-25T17:26:15.645Z,72.58
2023-03-25T17:28:56.832Z,72.44
2023-03-25T17:31:43.673Z,72.51
2023-03-25T17:34:17.123Z,73.55
2023-03-25T17:36:47.965Z,73.40
2023-03-25T17:39:18.458Z,73.37
2023-03-25T17:41:46.384Z,73.66
2023-03-25T17:44:17.865Z,73.76
2023-03-25T17:46:45.706Z,74.15
2023-03-25T17:49:18.982Z,73.88
2023-03-25T17:51:46.868Z,74.35
2023-03-25T17:54:14.960Z,74.56
2023-03-25T17:56:47.184Z,74.65
2023-03-25T17:59:18.229Z,74.54
2023-03-25T18:01:50.543Z,74.80
2023-03-25T18:04:21.401Z,75.06
2023-03-25T18:06:48.739Z,75.52
2023-03-25T18:09:21.390Z,75.27
2023-03-25T18:11:50.872Z,75.52
2023-03-25T18:14:17.834Z,75.93
2023-03-25T18:16:44.745Z,75.81
2023-03-25T18:19:17.366Z,75.90
2023-03-25T18:21:44.503Z,76.41
2023-03-25T18:24:14.145Z,76.56
2023-03-25T18:26:43.820Z,76.94
2023-03-25T18:29:28.948Z,76.84
2023-03-25T18:31:56.180Z,76.71
2023-03-25T18:34:25.577Z,76.90
2023-03-25T18:36:54.133Z,77.25
2023-03-25T18:39:23.702Z,77.42
2023-03-25T18:41:50.649Z,77.38
2023-03-25T18:44:17.612Z,77.30
2023-03-25T18:46:44.483Z,77.23
2023-03-25T18:49:17.525Z,77.46
2023-03-25T18:51:45.613Z,77.29
2023-03-25T18:54:14.390Z,77.06
2023-03-25T18:56:42.396Z,77.24
2023-03-25T18:59:17.234Z,77.58
2023-03-25T19:01:44.457Z,77.58
2023-03-25T19:04:14.693Z,77.48
2023-03-25T19:06:44.492Z,77.55
2023-03-25T19:09:18.467Z,77.47
2023-03-25T19:11:49.025Z,77.27
2023-03-25T19:14:16.663Z,77.07
2023-03-25T19:17:01.219Z,76.88
2023-03-25T19:19:41.177Z,76.76
2023-03-25T19:22:10.229Z,77.03
2023-03-25T19:24:38.202Z,76.48
2023-03-25T19:27:05.677Z,76.88
2023-03-25T19:29:33.211Z,76.68
2023-03-25T19:32:00.815Z,76.49
2023-03-25T19:34:28.914Z,76.76
2023-03-25T19:37:02.965Z,76.39
2023-03-25T19:39:30.846Z,76.42
2023-03-25T19:41:59.504Z,75.90
2023-03-25T19:44:26.623Z,75.81
2023-03-25T19:46:54.115Z,75.78
2023-03-25T19:49:36.341Z,75.41
2023-03-25T19:52:06.800Z,75.37
2023-03-25T19:54:33.595Z,74.84
2023-03-25T19:57:00.375Z,74.86
2023-03-25T19:59:27.345Z,74.87
2023-03-25T20:01:54.688Z,74.60
2023-03-25T20:04:21.524Z,74.64
2023-03-25T20:06:49.391Z,74.42
2023-03-25T20:09:17.419Z,74.04
2023-03-25T20:11:44.997Z,74.22
2023-03-25T20:14:11.942Z,73.98
2023-03-25T20:16:41.513Z,73.95
2023-03-25T20:19:08.582Z,73.91
2023-03-25T20:21:35.566Z,73.84
2023-03-25T20:24:04.870Z,74.03
2023-03-25T20:26:31.960Z,73.66
2023-03-25T20:28:58.978Z,73.78
2023-03-25T20:31:26.090Z,73.37
2023-03-25T20:33:53.227Z,73.35
2023-03-25T20:36:20.489Z,73.12
2023-03-25T20:38:57.291Z,72.96
2023-03-25T20:41:26.609Z,72.54
2023-03-25T20:43:53.537Z,72.78
2023-03-25T20:46:25.165Z,72.51
2023-03-25T20:48:55.956Z,72.41
2023-03-25T20:51:26.049Z,72.37
2023-03-25T20:53:53.618Z,72.67
2023-03-25T20:56:21.315Z,72.73
2023-03-25T20:58:54.292Z,72.74
2023-03-25T21:01:21.547Z,72.83
2023-03-25T21:03:52.189Z,72.99
2023-03-25T21:06:23.599Z,73.23
2023-03-25T21:08:51.692Z,73.35
2023-03-25T21:11:18.504Z,73.71
2023-03-25T21:13:45.784Z,73.69
2023-03-25T21:16:14.254Z,73.43
2023-03-25T21:18:42.989Z,73.68
2023-03-25T21:21:10.383Z,73.91
2023-03-25T21:23:37.247Z,73.89
2023-03-25T21:26:09.669Z,73.71
2023-03-25T21:28:39.231Z,74.02
2023-03-25T21:31:17.463Z,74.15
2023-03-25T21:33:49.948Z,74.46
2023-03-25T21:36:20.328Z,74.87
2023-03-25T21:38:47.421Z,74.92
2023-03-25T21:41:14.714Z,75.29
2023-03-25T21:43:42.514Z,75.52
2023-03-25T21:46:10.870Z,75.44
2023-03-25T21:48:38.888Z,75.87
2023-03-25T21:51:10.288Z,75.64
2023-03-25T21:53:46.921Z,75.87
2023-03-25T21:56:21.485Z,75.71
2023-03-25T21:58:52.194Z,75.81
2023-03-25T22:01:28.721Z,75.96
2023-03-25T22:03:57.516Z,75.74
2023-03-25T22:06:31.088Z,75.97
2023-03-25T22:08:59.434Z,76.18
2023-03-25T22:11:31.548Z,76.21
2023-03-25T22:13:58.678Z,76.00
2023-03-25T22:16:26.257Z,76.45
2023-03-25T22:18:53.758Z,76.33
2023-03-25T22:21:23.321Z,76.49
2023-03-25T22:23:54.385Z,76.40
2023-03-25T22:26:22.009Z,76.28
2023-03-25T22:28:51.432Z,76.62
2023-03-25T22:31:20.006Z,76.54
2023-03-25T22:33:49.517Z,76.59
2023-03-25T22:36:17.912Z,76.74
2023-03-25T22:38:46.540Z,76.67
2023-03-25T22:41:16.014Z,76.90
2023-03-25T22:43:49.418Z,76.79
2023-03-25T22:46:16.585Z,76.86
2023-03-25T22:48:43.525Z,77.05
2023-03-25T22:51:16.202Z,77.22
2023-03-25T22:53:43.786Z,77.09
2023-03-25T22:56:11.582Z,77.18
2023-03-25T22:58:39.521Z,77.25
2023-03-25T23:01:24.088Z,77.16
2023-03-25T23:03:51.973Z,77.33
2023-03-25T23:06:19.575Z,77.27
2023-03-25T23:08:47.556Z,76.89
2023-03-25T23:11:20.462Z,77.20
2023-03-25T23:13:50.648Z,77.41
2023-03-25T23:16:20.757Z,77.34
2023-03-25T23:18:47.895Z,77.37
2023-03-25T23:21:22.505Z,77.23
2023-03-25T23:23:53.436Z,77.21
2023-03-25T23:26:30.109Z,77.63
2023-03-25T23:29:00.751Z,77.67
2023-03-25T23:31:34.427Z,77.63
2023-03-25T23:34:04.272Z,77.66
2023-03-25T23:36:34.501Z,77.62
2023-03-25T23:39:02.609Z,77.88
2023-03-25T23:41:29.972Z,77.92
2023-03-25T23:43:56.949Z,77.85
2023-03-25T23:46:25.074Z,77.91
2023-03-25T23:48:56.027Z,77.95
2023-03-25T23:51:24.632Z,78.27
2023-03-25T23:53:52.627Z,78.56
2023-03-25T23:56:23.062Z,79.06
2023-03-25T23:58:51.193Z,79.12
